Time,TemperatureF,DewpointF,PressureIn,WindDirection,WindDirectionDegrees,WindSpeedMPH,WindSpeedGustMPH,Humidity,HourlyPrecipIn,Conditions,Clouds,dailyrainin,SoftwareType,DateUTC
2013-08-19 00:00:00,70.6,58.2,29.99,SW,225,1.1,1.1,65,0.00,,,0.00,WUHU216HW,2013-08-19 05:00:00,
2013-08-19 00:05:00,70.4,58.1,29.99,SSE,158,0.9,1.1,65,0.00,,,0.00,WUHU216HW,2013-08-19 05:05:00,
2013-08-19 00:10:00,70.4,58.1,29.99,SSE,158,0.9,0.9,65,0.00,,,0.00,WUHU216HW,2013-08-19 05:10:00,
2013-08-19 00:30:00,69.8,58.0,29.99,South,180,2.5,2.5,66,0.00,,,0.00,WUHU216HW,2013-08-19 05:30:00,
2013-08-19 00:31:00,69.8,58.0,29.99,South,180,1.6,2.5,66,0.00,,,0.00,WUHU216HW,2013-08-19 05:31:00,
2013-08-19 00:35:00,69.8,58.0,29.99,South,180,1.1,2.5,66,0.00,,,0.00,WUHU216HW,2013-08-19 05:35:00,
2013-08-19 00:36:00,69.8,58.0,29.99,South,180,1.1,2.5,66,0.00,,,0.00,WUHU216HW,2013-08-19 05:36:00,
2013-08-19 00:40:00,69.8,58.0,29.99,South,180,1.1,1.1,66,0.00,,,0.00,WUHU216HW,2013-08-19 05:40:00,
2013-08-19 01:00:00,69.5,58.0,29.98,SSE,158,2.0,2.0,67,0.00,,,0.00,WUHU216HW,2013-08-19 06:00:00,
2013-08-19 01:05:00,69.5,58.0,29.98,SSE,158,0.4,2.0,67,0.00,,,0.00,WUHU216HW,2013-08-19 06:05:00,
2013-08-19 01:30:00,69.7,58.1,29.98,SSW,203,2.5,2.5,67,0.00,,,0.00,WUHU216HW,2013-08-19 06:30:00,
2013-08-19 01:35:00,69.7,58.1,29.98,WSW,248,2.2,2.5,67,0.00,,,0.00,WUHU216HW,2013-08-19 06:35:00,
2013-08-19 01:36:00,69.7,58.1,29.98,WSW,248,2.2,2.5,67,0.00,,,0.00,WUHU216HW,2013-08-19 06:36:00,
2013-08-19 01:40:00,69.7,58.1,29.98,WSW,248,2.2,2.5,67,0.00,,,0.00,WUHU216HW,2013-08-19 06:40:00,
2013-08-19 02:00:00,70.2,58.2,29.97,SSE,158,2.0,2.0,66,0.00,,,0.00,WUHU216HW,2013-08-19 07:00:00,
2013-08-19 02:05:00,70.2,58.2,29.97,WSW,248,1.8,2.0,66,0.00,,,0.00,WUHU216HW,2013-08-19 07:05:00,
2013-08-19 02:06:00,70.2,58.2,29.97,WSW,248,1.8,2.0,66,0.00,,,0.00,WUHU216HW,2013-08-19 07:06:00,
2013-08-19 02:10:00,70.2,58.2,29.97,WSW,248,1.8,1.8,66,0.00,,,0.00,WUHU216HW,2013-08-19 07:10:00,
2013-08-19 02:30:00,69.8,58.0,29.96,SSW,203,1.8,1.8,66,0.00,,,0.00,WUHU216HW,2013-08-19 07:30:00,
2013-08-19 02:31:00,70.0,58.2,29.96,SSW,203,1.8,1.8,66,0.00,,,0.00,WUHU216HW,2013-08-19 07:31:00,
2013-08-19 02:35:00,70.0,58.2,29.96,SSW,203,1.8,1.8,66,0.00,,,0.00,WUHU216HW,2013-08-19 07:35:00,
2013-08-19 02:36:00,70.0,58.2,29.96,SSW,203,1.8,1.8,66,0.00,,,0.00,WUHU216HW,2013-08-19 07:36:00,
2013-08-19 03:00:00,69.8,58.0,29.97,West,270,2.0,2.0,66,0.00,,,0.00,WUHU216HW,2013-08-19 08:00:00,
2013-08-19 03:05:00,69.8,58.0,29.97,SSW,203,1.3,2.0,66,0.00,,,0.00,WUHU216HW,2013-08-19 08:05:00,
2013-08-19 03:06:00,69.8,58.0,29.97,SSW,203,1.3,2.0,66,0.00,,,0.00,WUHU216HW,2013-08-19 08:06:00,
2013-08-19 03:10:00,69.8,58.0,29.97,SSW,203,1.3,2.0,66,0.00,,,0.00,WUHU216HW,2013-08-19 08:10:00,
2013-08-19 03:30:00,70.0,58.5,29.97,South,180,2.5,2.5,67,0.00,,,0.00,WUHU216HW,2013-08-19 08:30:00,
2013-08-19 03:31:00,69.8,58.3,29.97,SSW,203,6.3,6.3,67,0.00,,,0.00,WUHU216HW,2013-08-19 08:31:00,
2013-08-19 03:35:00,69.8,58.3,29.97,SSW,203,6.3,6.3,67,0.00,,,0.00,WUHU216HW,2013-08-19 08:35:00,
2013-08-19 03:36:00,69.8,58.3,29.97,SSW,203,6.3,6.3,67,0.00,,,0.00,WUHU216HW,2013-08-19 08:36:00,
2013-08-19 04:00:00,69.5,58.0,29.97,SSE,158,1.8,1.8,67,0.00,,,0.00,WUHU216HW,2013-08-19 09:00:00,
2013-08-19 04:05:00,69.5,58.0,29.97,SE,135,1.3,1.8,67,0.00,,,0.00,WUHU216HW,2013-08-19 09:05:00,
2013-08-19 04:10:00,69.5,58.0,29.97,SE,135,1.3,1.3,67,0.00,,,0.00,WUHU216HW,2013-08-19 09:10:00,
2013-08-19 04:30:00,68.8,58.6,29.96,SE,135,1.3,1.3,70,0.00,,,0.00,WUHU216HW,2013-08-19 09:30:00,
2013-08-19 04:31:00,68.8,58.6,29.96,SE,135,1.8,1.8,70,0.00,,,0.00,WUHU216HW,2013-08-19 09:31:00,
2013-08-19 04:35:00,68.8,58.6,29.96,SE,135,1.8,1.8,70,0.00,,,0.00,WUHU216HW,2013-08-19 09:35:00,
2013-08-19 04:36:00,68.8,58.6,29.96,SE,135,1.8,1.8,70,0.00,,,0.00,WUHU216HW,2013-08-19 09:36:00,
2013-08-19 05:00:00,68.0,58.7,29.94,SE,135,2.2,2.2,72,0.00,,,0.00,WUHU216HW,2013-08-19 10:00:00,
2013-08-19 05:05:00,68.0,58.7,29.95,SSE,158,1.6,2.2,72,0.00,,,0.00,WUHU216HW,2013-08-19 10:05:00,
2013-08-19 05:10:00,68.0,58.7,29.95,SSE,158,1.6,2.2,72,0.00,,,0.00,WUHU216HW,2013-08-19 10:10:00,
2013-08-19 05:30:00,67.0,58.1,29.94,NE,45,0.4,0.4,73,0.00,,,0.00,WUHU216HW,2013-08-19 10:30:00,
2013-08-19 05:35:00,67.0,58.1,29.94,SSW,203,2.7,2.7,73,0.00,,,0.00,WUHU216HW,2013-08-19 10:35:00,
2013-08-19 05:36:00,67.0,58.1,29.94,SSW,203,2.7,2.7,73,0.00,,,0.00,WUHU216HW,2013-08-19 10:36:00,
2013-08-19 05:40:00,67.0,58.1,29.94,SSW,203,2.7,2.7,73,0.00,,,0.00,WUHU216HW,2013-08-19 10:40:00,
2013-08-19 06:00:00,66.6,58.1,29.92,SSW,203,5.4,5.4,74,0.01,,,0.00,WUHU216HW,2013-08-19 11:00:00,
2013-08-19 06:05:00,66.6,58.1,29.92,SE,135,6.0,6.0,74,0.01,,,0.01,WUHU216HW,2013-08-19 11:05:00,
2013-08-19 06:10:00,66.6,58.1,29.92,SE,135,6.0,6.0,74,0.01,,,0.01,WUHU216HW,2013-08-19 11:10:00,
2013-08-19 06:30:00,67.1,58.2,29.92,SSW,203,0.4,0.4,73,0.01,,,0.01,WUHU216HW,2013-08-19 11:30:00,
2013-08-19 06:31:00,67.3,58.4,29.92,South,180,2.2,2.5,73,0.01,,,0.01,WUHU216HW,2013-08-19 11:31:00,
2013-08-19 06:35:00,67.3,58.4,29.92,South,180,2.2,2.5,73,0.01,,,0.01,WUHU216HW,2013-08-19 11:35:00,
2013-08-19 06:36:00,67.3,58.4,29.92,South,180,2.2,2.5,73,0.01,,,0.01,WUHU216HW,2013-08-19 11:36:00,
2013-08-19 07:00:00,67.9,59.0,29.93,WSW,248,5.4,5.4,73,0.00,,,0.01,WUHU216HW,2013-08-19 12:00:00,
2013-08-19 07:05:00,67.9,59.0,29.93,SSW,203,4.9,6.5,73,0.00,,,0.01,WUHU216HW,2013-08-19 12:05:00,
2013-08-19 07:06:00,67.9,59.0,29.93,SSW,203,4.9,6.5,73,0.00,,,0.01,WUHU216HW,2013-08-19 12:06:00,
2013-08-19 07:10:00,67.9,59.0,29.93,SSW,203,4.9,6.5,73,0.00,,,0.01,WUHU216HW,2013-08-19 12:10:00,
2013-08-19 07:30:00,68.4,59.4,29.93,SSW,203,4.0,4.0,73,0.00,,,0.01,WUHU216HW,2013-08-19 12:30:00,
2013-08-19 07:35:00,68.2,59.2,29.93,SW,225,3.4,4.0,73,0.00,,,0.01,WUHU216HW,2013-08-19 12:35:00,
2013-08-19 07:36:00,68.2,59.2,29.93,SW,225,3.4,4.0,73,0.00,,,0.01,WUHU216HW,2013-08-19 12:36:00,
2013-08-19 08:00:00,68.6,59.6,29.94,SSW,203,2.5,2.5,73,0.00,,,0.01,WUHU216HW,2013-08-19 13:00:00,
2013-08-19 08:05:00,68.6,59.6,29.94,South,180,2.7,2.7,73,0.00,,,0.01,WUHU216HW,2013-08-19 13:05:00,
2013-08-19 08:06:00,68.6,59.6,29.94,South,180,2.7,2.7,73,0.00,,,0.01,WUHU216HW,2013-08-19 13:06:00,
2013-08-19 08:30:00,70.0,60.1,29.93,SSW,203,5.4,5.4,71,0.00,,,0.01,WUHU216HW,2013-08-19 13:30:00,
2013-08-19 08:35:00,70.0,60.1,29.93,SE,135,5.8,6.9,71,0.00,,,0.01,WUHU216HW,2013-08-19 13:35:00,
2013-08-19 08:36:00,70.0,60.1,29.93,SE,135,5.8,6.9,71,0.00,,,0.01,WUHU216HW,2013-08-19 13:36:00,
2013-08-19 09:00:00,70.6,61.0,29.94,South,180,4.3,4.3,72,0.00,,,0.01,WUHU216HW,2013-08-19 14:00:00,
2013-08-19 09:05:00,70.6,61.0,29.94,SSW,203,3.1,4.3,72,0.00,,,0.01,WUHU216HW,2013-08-19 14:05:00,
2013-08-19 09:06:00,70.6,61.0,29.94,SSW,203,3.1,4.3,72,0.00,,,0.01,WUHU216HW,2013-08-19 14:06:00,
2013-08-19 09:10:00,70.6,61.0,29.94,SSW,203,3.1,3.1,72,0.00,,,0.01,WUHU216HW,2013-08-19 14:10:00,
2013-08-19 09:30:00,71.3,61.4,29.94,SW,225,2.7,2.7,71,0.00,,,0.01,WUHU216HW,2013-08-19 14:30:00,
2013-08-19 09:31:00,71.3,61.4,29.94,SW,216,2.1,2.7,71,0.00,,,0.01,WUHU216HW,2013-08-19 14:31:00,
2013-08-19 09:35:00,71.3,61.4,29.94,South,180,1.3,2.7,71,0.00,,,0.01,WUHU216HW,2013-08-19 14:35:00,
2013-08-19 09:36:00,71.3,61.4,29.94,South,180,1.3,2.7,71,0.00,,,0.01,WUHU216HW,2013-08-19 14:36:00,
2013-08-19 09:40:00,71.3,61.4,29.94,South,180,1.3,2.2,71,0.00,,,0.01,WUHU216HW,2013-08-19 14:40:00,
2013-08-19 10:00:00,72.4,62.5,29.94,SE,135,1.1,1.1,71,0.00,,,0.01,WUHU216HW,2013-08-19 15:00:00,
2013-08-19 10:05:00,72.4,62.5,29.94,SE,135,1.6,1.6,71,0.00,,,0.01,WUHU216HW,2013-08-19 15:05:00,
2013-08-19 10:10:00,72.4,62.5,29.94,SE,135,1.6,1.6,71,0.00,,,0.01,WUHU216HW,2013-08-19 15:10:00,
2013-08-19 10:30:00,77.0,64.8,29.95,SE,135,1.1,1.1,66,0.00,,,0.01,WUHU216HW,2013-08-19 15:30:00,
2013-08-19 10:31:00,77.2,65.0,29.95,SE,135,4.0,4.0,66,0.00,,,0.01,WUHU216HW,2013-08-19 15:31:00,
2013-08-19 10:35:00,77.2,65.0,29.95,SE,135,4.0,4.0,66,0.00,,,0.01,WUHU216HW,2013-08-19 15:35:00,
2013-08-19 10:36:00,77.2,65.0,29.95,SE,135,4.0,4.0,66,0.00,,,0.01,WUHU216HW,2013-08-19 15:36:00,
2013-08-19 10:40:00,77.2,65.0,29.95,SE,135,4.0,4.0,66,0.00,,,0.01,WUHU216HW,2013-08-19 15:40:00,
2013-08-19 11:00:00,78.1,65.0,29.96,East,90,4.0,4.0,64,0.00,,,0.01,WUHU216HW,2013-08-19 16:00:00,
2013-08-19 11:05:00,78.1,65.0,29.96,ESE,113,3.6,4.0,64,0.00,,,0.01,WUHU216HW,2013-08-19 16:05:00,
2013-08-19 11:10:00,78.1,65.0,29.96,ESE,113,3.6,3.6,64,0.00,,,0.01,WUHU216HW,2013-08-19 16:10:00,
2013-08-19 11:30:00,81.4,65.2,29.95,SSW,203,2.2,2.2,58,0.00,,,0.01,WUHU216HW,2013-08-19 16:30:00,
2013-08-19 11:31:00,81.5,65.8,29.95,SSE,158,3.8,3.8,59,0.00,,,0.01,WUHU216HW,2013-08-19 16:31:00,
2013-08-19 11:35:00,81.5,65.8,29.95,SSE,158,3.8,3.8,59,0.00,,,0.01,WUHU216HW,2013-08-19 16:35:00,
2013-08-19 11:36:00,81.5,65.8,29.95,SSE,158,3.8,3.8,59,0.00,,,0.01,WUHU216HW,2013-08-19 16:36:00,
2013-08-19 12:00:00,80.3,65.2,29.95,SE,135,7.2,7.2,60,0.00,,,0.01,WUHU216HW,2013-08-19 17:00:00,
2013-08-19 12:05:00,80.3,65.2,29.94,South,180,5.4,7.2,60,0.00,,,0.01,WUHU216HW,2013-08-19 17:05:00,
2013-08-19 12:06:00,80.3,65.2,29.94,South,180,5.4,7.2,60,0.00,,,0.01,WUHU216HW,2013-08-19 17:06:00,
2013-08-19 12:10:00,80.3,65.2,29.94,South,180,5.4,5.4,60,0.00,,,0.01,WUHU216HW,2013-08-19 17:10:00,
2013-08-19 12:30:00,82.6,66.2,29.94,SSE,158,3.8,3.8,58,0.00,,,0.01,WUHU216HW,2013-08-19 17:30:00,
2013-08-19 12:35:00,82.6,66.8,29.94,SSE,158,3.8,3.8,59,0.00,,,0.01,WUHU216HW,2013-08-19 17:35:00,
2013-08-19 12:37:00,82.6,66.8,29.94,SSE,158,3.8,3.8,59,0.00,,,0.01,WUHU216HW,2013-08-19 17:37:00,
2013-08-19 12:40:00,82.6,66.8,29.94,SSE,158,3.8,3.8,59,0.00,,,0.01,WUHU216HW,2013-08-19 17:40:00,
2013-08-19 13:00:00,84.2,67.4,29.93,SSE,158,4.0,4.0,57,0.00,,,0.01,WUHU216HW,2013-08-19 18:00:00,
2013-08-19 13:05:00,84.2,67.4,29.93,South,180,2.9,4.0,57,0.00,,,0.01,WUHU216HW,2013-08-19 18:05:00,
2013-08-19 13:06:00,84.2,67.4,29.93,South,180,2.9,4.0,57,0.00,,,0.01,WUHU216HW,2013-08-19 18:06:00,
2013-08-19 13:10:00,84.2,67.4,29.93,South,180,2.9,2.9,57,0.00,,,0.01,WUHU216HW,2013-08-19 18:10:00,
2013-08-19 13:30:00,85.1,67.7,29.92,ESE,113,3.4,3.4,56,0.00,,,0.01,WUHU216HW,2013-08-19 18:30:00,
2013-08-19 13:31:00,85.1,67.7,29.92,SSE,158,5.1,5.1,56,0.00,,,0.01,WUHU216HW,2013-08-19 18:31:00,
2013-08-19 13:35:00,85.1,67.7,29.92,SSE,158,5.1,5.1,56,0.00,,,0.01,WUHU216HW,2013-08-19 18:35:00,
2013-08-19 13:36:00,85.1,67.7,29.92,SSE,158,5.1,5.1,56,0.00,,,0.01,WUHU216HW,2013-08-19 18:36:00,
2013-08-19 13:40:00,85.1,67.7,29.92,SSE,158,5.1,5.1,56,0.00,,,0.01,WUHU216HW,2013-08-19 18:40:00,
2013-08-19 14:00:00,86.8,68.1,29.92,South,180,3.1,3.1,54,0.00,,,0.01,WUHU216HW,2013-08-19 19:00:00,
2013-08-19 14:05:00,86.8,67.6,29.92,SSE,158,6.9,6.9,53,0.00,,,0.01,WUHU216HW,2013-08-19 19:05:00,
2013-08-19 14:06:00,86.8,67.6,29.92,SSE,158,6.9,6.9,53,0.00,,,0.01,WUHU216HW,2013-08-19 19:06:00,
2013-08-19 14:10:00,86.8,67.6,29.92,SSE,158,6.9,6.9,53,0.00,,,0.01,WUHU216HW,2013-08-19 19:10:00,
2013-08-19 14:30:00,86.8,68.1,29.92,South,180,4.7,4.7,54,0.00,,,0.01,WUHU216HW,2013-08-19 19:30:00,
2013-08-19 14:31:00,86.8,68.1,29.92,South,180,4.6,4.7,54,0.00,,,0.01,WUHU216HW,2013-08-19 19:31:00,
2013-08-19 14:35:00,86.8,68.1,29.92,South,180,4.3,4.7,54,0.00,,,0.01,WUHU216HW,2013-08-19 19:35:00,
2013-08-19 14:36:00,86.8,68.1,29.92,South,180,4.3,4.7,54,0.00,,,0.01,WUHU216HW,2013-08-19 19:36:00,
2013-08-19 14:40:00,86.8,68.1,29.92,South,180,4.3,4.7,54,0.00,,,0.01,WUHU216HW,2013-08-19 19:40:00,
2013-08-19 15:00:00,87.3,67.5,29.91,South,180,6.5,6.5,52,0.00,,,0.01,WUHU216HW,2013-08-19 20:00:00,
2013-08-19 15:05:00,87.3,68.0,29.91,SSE,158,4.7,6.5,53,0.00,,,0.01,WUHU216HW,2013-08-19 20:05:00,
2013-08-19 15:30:00,87.1,68.0,29.91,SW,225,2.5,2.5,53,0.00,,,0.01,WUHU216HW,2013-08-19 20:30:00,
2013-08-19 15:35:00,87.1,68.0,29.91,SW,225,2.5,2.5,53,0.00,,,0.01,WUHU216HW,2013-08-19 20:35:00,
2013-08-19 15:36:00,87.1,68.0,29.91,SW,225,2.5,2.5,53,0.00,,,0.01,WUHU216HW,2013-08-19 20:36:00,
2013-08-19 15:40:00,87.1,68.0,29.91,SW,225,2.5,2.5,53,0.00,,,0.01,WUHU216HW,2013-08-19 20:40:00,
2013-08-19 16:00:00,86.8,67.6,29.90,SSE,158,3.6,3.6,53,0.00,,,0.01,WUHU216HW,2013-08-19 21:00:00,
2013-08-19 16:05:00,86.8,67.6,29.90,SSW,203,4.0,4.0,53,0.00,,,0.01,WUHU216HW,2013-08-19 21:05:00,
2013-08-19 16:10:00,86.8,67.6,29.90,SSW,203,4.0,4.0,53,0.00,,,0.01,WUHU216HW,2013-08-19 21:10:00,
2013-08-19 16:30:00,87.5,67.7,29.89,SSW,203,4.0,4.0,52,0.00,,,0.01,WUHU216HW,2013-08-19 21:30:00,
2013-08-19 16:35:00,87.5,67.7,29.89,SSW,203,4.0,4.0,52,0.00,,,0.01,WUHU216HW,2013-08-19 21:35:00,
2013-08-19 16:36:00,87.5,67.7,29.89,SSW,203,4.0,4.0,52,0.00,,,0.01,WUHU216HW,2013-08-19 21:36:00,
2013-08-19 17:00:00,87.1,68.0,29.89,SSE,158,8.3,8.3,53,0.00,,,0.01,WUHU216HW,2013-08-19 22:00:00,
2013-08-19 17:05:00,87.1,67.4,29.89,SSE,158,4.7,8.3,52,0.00,,,0.01,WUHU216HW,2013-08-19 22:05:00,
2013-08-19 17:10:00,87.1,67.4,29.89,SSE,158,4.7,4.7,52,0.00,,,0.01,WUHU216HW,2013-08-19 22:10:00,
2013-08-19 17:28:00,87.3,67.5,29.88,SSW,203,4.3,4.3,52,0.00,,,0.01,WUHU216HW,2013-08-19 22:28:00,
2013-08-19 17:33:00,87.3,68.0,29.88,SSW,203,4.3,4.3,53,0.00,,,0.01,WUHU216HW,2013-08-19 22:33:00,
2013-08-19 17:38:00,87.3,68.0,29.88,SSW,203,4.3,4.3,53,0.00,,,0.01,WUHU216HW,2013-08-19 22:38:00,
2013-08-19 17:58:00,86.8,67.6,29.88,ENE,68,2.9,2.9,53,0.00,,,0.01,WUHU216HW,2013-08-19 22:58:00,
2013-08-19 18:03:00,86.8,67.6,29.88,WSW,248,4.3,5.6,53,0.00,,,0.01,WUHU216HW,2013-08-19 23:03:00,
2013-08-19 18:08:00,86.8,67.6,29.88,WSW,248,4.3,5.6,53,0.00,,,0.01,WUHU216HW,2013-08-19 23:08:00,
2013-08-19 18:09:00,86.8,67.6,29.88,WSW,248,4.3,4.3,53,0.00,,,0.01,WUHU216HW,2013-08-19 23:09:00,
2013-08-19 18:30:00,85.7,67.6,29.88,South,180,3.8,3.8,55,0.00,,,0.01,WUHU216HW,2013-08-19 23:30:00,
2013-08-19 18:35:00,85.7,67.6,29.88,SW,225,3.4,3.8,55,0.00,,,0.01,WUHU216HW,2013-08-19 23:35:00,
2013-08-19 18:36:00,85.7,67.6,29.88,SW,225,3.4,3.8,55,0.00,,,0.01,WUHU216HW,2013-08-19 23:36:00,
2013-08-19 19:00:00,84.6,68.2,29.88,SSW,203,4.7,4.7,58,0.00,,,0.01,WUHU216HW,2013-08-20 00:00:00,
2013-08-19 19:05:00,84.6,68.2,29.88,SSW,203,4.7,4.7,58,0.00,,,0.01,WUHU216HW,2013-08-20 00:05:00,
2013-08-19 19:10:00,84.6,68.2,29.88,SSW,203,4.7,4.7,58,0.00,,,0.01,WUHU216HW,2013-08-20 00:10:00,
2013-08-19 19:30:00,82.4,67.1,29.88,SE,135,1.1,1.1,60,0.00,,,0.01,WUHU216HW,2013-08-20 00:30:00,
2013-08-19 19:31:00,82.4,67.1,29.88,SE,135,1.1,1.1,60,0.00,,,0.01,WUHU216HW,2013-08-20 00:31:00,
2013-08-19 19:35:00,82.4,67.1,29.88,SE,135,1.1,1.1,60,0.00,,,0.01,WUHU216HW,2013-08-20 00:35:00,
2013-08-19 19:36:00,82.4,67.1,29.88,SE,135,1.1,1.1,60,0.00,,,0.01,WUHU216HW,2013-08-20 00:36:00,
2013-08-19 19:40:00,82.4,67.1,29.88,SE,135,1.1,1.1,60,0.00,,,0.01,WUHU216HW,2013-08-20 00:40:00,
2013-08-19 20:00:00,81.0,67.2,29.88,SSE,158,0.9,0.9,63,0.00,,,0.01,WUHU216HW,2013-08-20 01:00:00,
2013-08-19 20:05:00,80.8,67.1,29.88,SSE,158,0.7,0.9,63,0.00,,,0.01,WUHU216HW,2013-08-20 01:05:00,
2013-08-19 20:06:00,80.8,67.1,29.88,SSE,158,0.7,0.9,63,0.00,,,0.01,WUHU216HW,2013-08-20 01:06:00,
2013-08-19 20:10:00,80.8,67.1,29.88,SSE,158,0.7,0.7,63,0.00,,,0.01,WUHU216HW,2013-08-20 01:10:00,
2013-08-19 20:30:00,79.9,67.1,29.88,South,180,1.3,1.3,65,0.00,,,0.01,WUHU216HW,2013-08-20 01:30:00,
2013-08-19 20:31:00,79.7,67.3,29.88,SE,143,1.4,1.8,66,0.00,,,0.01,WUHU216HW,2013-08-20 01:31:00,
2013-08-19 20:35:00,79.7,67.3,29.88,ESE,113,1.1,1.8,66,0.00,,,0.01,WUHU216HW,2013-08-20 01:35:00,
2013-08-19 20:36:00,79.7,67.3,29.88,ESE,113,1.1,1.8,66,0.00,,,0.01,WUHU216HW,2013-08-20 01:36:00,
2013-08-19 20:40:00,79.7,67.3,29.88,ESE,113,1.1,1.8,66,0.00,,,0.01,WUHU216HW,2013-08-20 01:40:00,
2013-08-19 21:00:00,78.5,67.1,29.89,ESE,113,0.4,0.4,68,0.00,,,0.01,WUHU216HW,2013-08-20 02:00:00,
2013-08-19 21:05:00,78.5,67.1,29.89,ESE,113,0.4,0.4,68,0.00,,,0.01,WUHU216HW,2013-08-20 02:05:00,
2013-08-19 21:30:00,76.9,66.4,29.89,SSE,158,0.9,0.9,70,0.00,,,0.01,WUHU216HW,2013-08-20 02:30:00,
2013-08-19 21:35:00,76.9,66.4,29.89,SSE,158,0.9,0.9,70,0.00,,,0.01,WUHU216HW,2013-08-20 02:35:00,
2013-08-19 21:36:00,76.9,66.4,29.89,SSE,158,0.9,0.9,70,0.00,,,0.01,WUHU216HW,2013-08-20 02:36:00,
2013-08-19 22:00:00,76.7,66.2,29.90,SE,135,0.4,0.4,70,0.00,,,0.01,WUHU216HW,2013-08-20 03:00:00,
2013-08-19 22:05:00,76.7,66.2,29.90,SE,135,0.4,0.4,70,0.00,,,0.01,WUHU216HW,2013-08-20 03:05:00,
2013-08-19 22:30:00,76.0,65.9,29.89,SE,135,2.7,2.7,71,0.00,,,0.01,WUHU216HW,2013-08-20 03:30:00,
2013-08-19 22:35:00,76.0,65.9,29.89,SE,135,2.7,2.7,71,0.00,,,0.01,WUHU216HW,2013-08-20 03:35:00,
2013-08-19 23:00:00,74.5,65.4,29.89,SE,135,2.2,2.2,73,0.00,,,0.01,WUHU216HW,2013-08-20 04:00:00,
2013-08-19 23:01:00,74.5,65.4,29.89,SE,135,2.2,2.2,73,0.00,,,0.01,WUHU216HW,2013-08-20 04:01:00,
2013-08-19 23:06:00,74.5,65.4,29.89,SE,135,2.2,2.2,73,0.00,,,0.01,WUHU216HW,2013-08-20 04:06:00,
2013-08-19 23:30:00,73.8,64.6,29.89,SSE,158,2.2,2.2,73,0.00,,,0.01,WUHU216HW,2013-08-20 04:30:00,
2013-08-19 23:35:00,73.8,64.6,29.89,SSE,158,2.2,2.2,73,0.00,,,0.01,WUHU216HW,2013-08-20 04:35:00,